Bodega Marine Reserve, California Weather observations

Data are for 10 minute period ending at time listed.
 Day   Time   Solar   Ave.   Ave.  Ave.  Vector  Max.   Baro.   Total    
  of    of     Rad.   Air    Rel.  Wind   Wind   Wind  Press.  Precip.   
Year   Day            Temp.  Hum.  Speed  Dir.   Gust                    
2014   (PST)  Kw/m2    F      %     mph   deg.    mph    mb.     in.     
-------------------------------------------------------------------------
 292   14:10   0.26   64.7    79    3.6   274     6.6   1009.8    0.00 
 292   14:20   0.22   64.8    79    3.4   264     8.0   1009.8    0.00 
 292   14:30   0.27   64.7    79    4.0   220     7.1   1009.8    0.00 
 292   14:40   0.39   65.0    78    3.3   262     6.1   1009.8    0.00 
 292   14:50   0.33   65.6    76    3.5   212     6.8   1009.8    0.00 
 292   15:00   0.24   64.8    78    3.8   247     6.4   1009.5    0.00 
 292   15:10   0.35   65.3    77    2.2   186     4.4   1009.5    0.00 
 292   15:20   0.34   66.8    74    2.9   242     5.6   1009.5    0.00 
 292   15:30   0.30   65.7    76    4.6   247     6.8   1009.5    0.00 
 292   15:40   0.20   64.7    79    4.8   262     6.9   1009.5    0.00 
 292   15:50   0.18   64.4    80    4.3   265     6.5   1009.5    0.00 
 292   16:00   0.24   64.7    80    2.6   262     5.1   1009.5    0.00 
 292   16:10   0.20   65.0    78    3.5   293     6.2   1009.5    0.00 
 292   16:20   0.17   64.5    79    2.1   289     4.1   1009.1    0.00 
 292   16:30   0.13   64.5    79    3.1   300     5.1   1009.1    0.00 
 292   16:40   0.12   64.3    79    2.6   295     4.1   1009.1    0.00 
 292   16:50   0.09   64.5    78    2.0   287     3.7   1009.1    0.00 
 292   17:00   0.06   64.0    79    2.7   304     3.8   1009.1    0.00 
 292   17:10   0.01   62.5    82    3.3   299     3.7   1008.8    0.00 
 292   17:20   0.01   61.2    84    3.0   304     3.8   1008.8    0.00 
 292   17:30   0.00   60.0    86    2.3   314     3.2   1008.8    0.00 
 292   17:40   0.00   59.4    88    2.4   306     3.3   1008.8    0.00 
 292   17:50   0.00   59.1    89    2.1   311     3.3   1008.5    0.00 
 292   18:00   0.00   58.8    90    2.8   306     4.0   1008.5    0.00 
 292   18:10   0.00   59.2    91    1.8   292     3.4   1008.5    0.00 
 292   18:20   0.00   59.5    91    2.1   288     3.7   1008.5    0.00 
 292   18:30   0.00   59.3    91    2.4   293     3.7   1008.8    0.00 
 292   18:40   0.00   58.9    91    3.1   280     5.0   1008.8    0.00 
 292   18:50   0.00   58.7    92    3.4   283     4.2   1008.8    0.00 
 292   19:00   0.00   58.5    92    2.7   289     3.8   1008.8    0.00 
 292   19:10   0.00   59.1    92    2.6   277     3.9   1008.8    0.00 
 292   19:20   0.00   59.8    92    3.1   266     5.8   1009.1    0.00 
 292   19:30   0.00   60.6    92    4.7   269     7.4   1009.1    0.00 
 292   19:40   0.00   61.0    91    5.2   262     8.8   1009.1    0.00 
 292   19:50   0.00   61.1    92    5.5   258     8.6   1009.1    0.00 
 292   20:00   0.00   61.1    92    3.7   272     6.0   1009.1    0.00 
 292   20:10   0.00   61.2    92    3.6   258     5.7   1009.1    0.00 
 292   20:20   0.00   61.2    92    4.0   262     8.8   1009.1    0.00 
 292   20:30   0.00   61.2    92    4.8   257     7.2   1009.5    0.00 
 292   20:40   0.00   61.1    92    2.3   237     4.0   1009.5    0.00 
 292   20:50   0.00   61.2    92    1.9   269     3.3   1009.5    0.00 
 292   21:00   0.00   61.2    92    0.9   250     2.0   1009.5    0.00 
 292   21:10   0.00   61.0    91    0.7   346     2.6   1009.5    0.00 
 292   21:20   0.00   60.1    91    2.3     2     3.1   1009.5    0.00 
 292   21:30   0.00   59.9    92    1.4    29     2.0   1009.5    0.00 
 292   21:40   0.00   60.1    92    1.3    89     2.3   1009.5    0.00 
 292   21:50   0.00   59.8    92    1.3    77     2.9   1009.1    0.00 
 292   22:00   0.00   59.6    92    1.1   152     2.9   1009.1    0.00 
 292   22:10   0.00   59.5    93    1.6   132     2.6   1009.1    0.00 
 292   22:20   0.00   59.4    93    1.5   146     2.6   1009.5    0.00 
 292   22:30   0.00   59.5    94    2.6   142     4.0   1009.5    0.00 
 292   22:40   0.00   60.0    94    2.0   137     2.9   1009.5    0.00 
 292   22:50   0.00   60.3    94    2.6   125     4.6   1009.5    0.00 
 292   23:00   0.00   60.5    94    1.3   135     3.4   1009.5    0.00 
 292   23:10   0.00   60.0    94    0.9   153     2.0   1009.5    0.00 
 292   23:20   0.00   59.1    94    2.2   158     2.9   1009.5    0.00 
 292   23:30   0.00   59.1    94    1.2   168     2.6   1009.5    0.00 
 292   23:40   0.00   59.4    94    1.1   131     1.8   1009.8    0.00 
 292   23:50   0.00   59.6    94    0.5   126     2.1   1009.8    0.00 
 293    0:00   0.00   59.8    94    0.6   112     2.3   1009.8    0.00 
 293    0:10   0.00   60.3    94    2.7   108     3.6   1009.8    0.00 
 293    0:20   0.00   60.5    94    2.4   115     3.1   1009.8    0.00 
 293    0:30   0.00   60.7    94    2.7   122     4.2   1009.8    0.00 
 293    0:40   0.00   60.9    94    2.7   136     3.9   1009.8    0.00 
 293    0:50   0.00   61.0    94    3.4   140     6.2   1009.8    0.00 
 293    1:00   0.00   61.0    94    4.9   138     6.1   1009.8    0.00 
 293    1:10   0.00   61.0    94    4.7   140     6.4   1009.8    0.00 
 293    1:20   0.00   60.9    94    5.0   142     6.4   1009.8    0.00 
 293    1:30   0.00   61.0    94    3.8   136     5.3   1009.8    0.00 
 293    1:40   0.00   60.9    94    4.5   134     6.1   1009.8    0.00 
 293    1:50   0.00   60.9    94    3.7   131     5.7   1009.8    0.00 
 293    2:00   0.00   61.0    94    3.6   133     6.6   1009.8    0.00 
 293    2:10   0.00   61.0    94    5.1   139     7.5   1009.5    0.00 
 293    2:20   0.00   61.0    94    4.3   124     6.8   1009.5    0.00 
 293    2:30   0.00   60.8    94    3.8   125     6.7   1009.5    0.00 
 293    2:40   0.00   60.9    94    4.9   129     7.3   1009.5    0.00 
 293    2:50   0.00   61.0    94    5.7   134     8.0   1009.1    0.00 
 293    3:00   0.00   61.1    93    5.4   134     8.7   1009.1    0.00 
 293    3:10   0.00   61.2    93    7.1   126    10.1   1009.1    0.00 
 293    3:20   0.00   61.3    92    6.9   123    10.2   1008.8    0.00 
 293    3:30   0.00   61.1    92    5.4   118    11.0   1008.8    0.00 
 293    3:40   0.00   61.0    92    4.9   114     9.6   1008.8    0.00 
 293    3:50   0.00   60.8    92    4.9   117     8.8   1008.8    0.00 
 293    4:00   0.00   61.1    92    5.8   120     9.9   1008.8    0.00 
 293    4:10   0.00   61.1    92    5.7   122     9.4   1008.8    0.00 
 293    4:20   0.00   61.1    92    4.5   119     9.7   1008.8    0.00 
 293    4:30   0.00   61.0    92    3.7   118     6.0   1008.8    0.00 
 293    4:40   0.00   60.9    92    3.9   121     7.5   1008.8    0.00 
 293    4:50   0.00   60.9    91    5.7   127     8.0   1009.1    0.00 
 293    5:00   0.00   60.9    91    4.0   122     6.4   1009.1    0.00 
 293    5:10   0.00   60.9    91    4.0   122     6.5   1009.1    0.00 
 293    5:20   0.00   60.9    92    3.1   120     5.2   1009.1    0.00 
 293    5:30   0.00   60.7    92    3.4   121     6.1   1009.1    0.02 
 293    5:40   0.00   60.6    94    6.1   132     8.9   1009.1    0.01 
 293    5:50   0.00   60.6    95    6.8   145     9.1   1009.1    0.03 
 293    6:00   0.00   60.7    95    8.6   213    15.2   1009.5    0.08 
 293    6:10   0.00   59.3    95    7.6   242    12.2   1009.5    0.03 
 293    6:20   0.00   59.5    95    6.2   271     9.4   1009.5    0.00 
 293    6:30   0.00   59.6    95    6.4   312     9.9   1009.5    0.00 
 293    6:40   0.00   59.7    95    8.8   312    11.6   1009.5    0.00 
 293    6:50   0.01   60.0    95    8.1   310    11.1   1009.8    0.01 
 293    7:00   0.01   60.2    95    7.8   300    10.5   1010.2    0.01 
 293    7:10   0.01   60.2    95    9.7   290    16.0   1010.2    0.02 
 293    7:20   0.01   59.4    95   11.0   296    17.4   1010.5    0.02 
 293    7:30   0.03   59.6    96    9.5   298    12.8   1010.8    0.02 
 293    7:40   0.05   59.6    96    8.4   294    12.1   1010.8    0.02 
 293    7:50   0.07   59.9    96    6.2   301     9.1   1010.8    0.00 
 293    8:00   0.07   60.1    96    6.6   302     9.9   1010.8    0.00 
 293    8:10   0.09   60.2    96    7.1   304    10.4   1010.8    0.00 
 293    8:20   0.18   60.8    96    5.6   322     8.0   1010.8    0.00 
 293    8:30   0.13   61.0    96    5.9   307     8.1   1011.2    0.00 
 293    8:40   0.13   61.2    95    5.1   304     7.0   1011.2    0.00 
 293    8:50   0.16   61.3    95    5.7   282     8.3   1011.5    0.00 
 293    9:00   0.17   61.3    95    5.7   274     7.6   1011.5    0.00 
 293    9:10   0.19   61.4    95    4.6   252     6.6   1011.9    0.00 
 293    9:20   0.33   61.7    94    4.6   254     6.2   1011.5    0.00 
 293    9:30   0.33   62.0    93    4.3   286     6.4   1011.9    0.00 
 293    9:40   0.20   62.0    92    4.2   257     6.1   1011.9    0.00 
 293    9:50   0.24   61.8    92    5.5   256     7.4   1012.2    0.00 
 293   10:00   0.27   62.2    91    5.6   258     7.2   1012.2    0.00 
 293   10:10   0.24   62.1    90    5.5   254     7.1   1012.2    0.00 
 293   10:20   0.30   62.5    90    4.5   251     5.9   1012.2    0.00 
 293   10:30   0.37   63.0    88    3.9   257     5.7   1012.2    0.00 
 293   10:40   0.34   63.3    86    4.2   244     6.1   1012.2    0.00 
 293   10:50   0.36   63.1    86    4.0   239     5.8   1012.5    0.00 
 293   11:00   0.42   63.9    85    3.4   238     6.4   1012.5    0.00 
 293   11:10   0.46   63.8    82    3.5   255     5.7   1012.2    0.00 
 293   11:20   0.39   64.3    82    2.8   246     4.9   1012.2    0.00 
 293   11:30   0.38   64.1    78    3.5   261     5.6   1012.2    0.00 
 293   11:40   0.32   63.9    80    4.1   258     6.0   1012.5    0.00 
 293   11:50   0.28   64.1    83    4.0   233     6.1   1012.5    0.00 
 293   12:00   0.35   64.3    79    4.0   220     7.2   1012.5    0.00 
 293   12:10   0.57   65.0    79    4.3   215     8.3   1012.2    0.00 
 293   12:20   0.62   65.5    76    5.0   214     8.6   1012.5    0.00 
 293   12:30   0.65   66.3    76    4.2   198     7.8   1012.2    0.00 
 293   12:40   0.61   67.0    74    5.3   205     8.8   1012.2    0.00 
 293   12:50   0.58   66.1    77    5.3   192     8.6   1012.2    0.00 
 293   13:00   0.61   67.4    75    5.0   182     9.3   1012.2    0.00 
 293   13:10   0.59   66.7    76    8.3   211    12.3   1012.2    0.00 
 293   13:20   0.57   65.4    78   10.2   206    12.9   1012.2    0.00 
 293   13:30   0.57   65.9    77    9.3   212    12.9   1012.2    0.00 
 293   13:40   0.55   65.9    78    9.4   209    11.9   1012.2    0.00 
 293   13:50   0.53   65.8    79    8.6   207    11.4   1012.2    0.00 
 293   14:00   0.51   66.8    77    7.0   221    11.2   1012.2    0.00 

Return to Bodega Marine Reserve graphs page.


Western Regional Climate Center,wrcc@dri.edu